Terminal Aerodrome Forecast
Issued by NWS Melbourne, FL

Home | Current Version | Previous Version | Text Only | Print | Product List | Glossary On
Versions: 1 2 3 4 5 6 7 8 9 10 11 12 13 14 15 16 17
000
FTUS42 KMLB 270530
TAFMLB
TAF
KMLB 270530Z 2706/2806 24010KT P6SM BKN200
      TEMPO 2710/2713 BKN012
     FM271500 29010KT P6SM VCSH SCT030 BKN150
     FM271900 05008KT P6SM SCT030 BKN060
     FM280100 VRB04KT P6SM FEW025 BKN200=

USA.gov is the U.S. government's official web portal to all federal, state and local government web resources and services.